createdAt,value
2018-03-25T00:00:12.575Z,34.50
2018-03-25T00:01:12.530Z,35.60
2018-03-25T00:02:12.484Z,33.60
2018-03-25T00:03:12.619Z,33.50
2018-03-25T00:04:12.387Z,36.20
2018-03-25T00:05:12.336Z,37.10
2018-03-25T00:06:12.286Z,35.20
2018-03-25T00:07:12.238Z,35.40
2018-03-25T00:08:12.246Z,36.90
2018-03-25T00:09:12.200Z,36.10
2018-03-25T00:10:12.095Z,34.90
2018-03-25T00:11:12.047Z,38.00
2018-03-25T00:12:11.997Z,38.10
2018-03-25T00:13:11.955Z,38.80
2018-03-25T00:14:11.952Z,35.80
2018-03-25T00:15:11.855Z,40.20
2018-03-25T00:16:11.804Z,36.50
2018-03-25T00:17:11.788Z,37.50
2018-03-25T00:18:11.707Z,36.90
2018-03-25T00:19:11.661Z,33.60
2018-03-25T00:20:11.616Z,36.10
2018-03-25T00:21:11.565Z,38.20
2018-03-25T00:22:11.515Z,35.40
2018-03-25T00:23:11.470Z,39.90
2018-03-25T00:24:11.416Z,37.10
2018-03-25T00:25:11.368Z,37.10
2018-03-25T00:26:11.320Z,35.60
2018-03-25T00:27:11.270Z,38.20
2018-03-25T00:28:11.224Z,39.00
2018-03-25T00:29:11.189Z,38.60
2018-03-25T00:30:11.134Z,42.10
2018-03-25T00:31:11.077Z,38.80
2018-03-25T00:32:11.056Z,40.20
2018-03-25T00:33:10.995Z,37.00
2018-03-25T00:34:10.933Z,36.60
2018-03-25T00:35:10.884Z,35.60
2018-03-25T00:36:10.837Z,37.80
2018-03-25T00:37:10.788Z,36.40
2018-03-25T00:38:10.737Z,34.20
2018-03-25T00:39:10.690Z,36.20
2018-03-25T00:40:10.644Z,40.20
2018-03-25T00:41:10.592Z,36.70
2018-03-25T00:42:10.544Z,35.80
2018-03-25T00:43:10.495Z,37.10
2018-03-25T00:44:10.448Z,35.90
2018-03-25T00:45:10.398Z,34.40
2018-03-25T00:46:10.350Z,38.10
2018-03-25T00:47:10.301Z,40.70
2018-03-25T00:48:10.253Z,39.90
2018-03-25T00:49:10.205Z,40.20
2018-03-25T00:50:10.154Z,38.00
2018-03-25T00:51:10.108Z,41.70
2018-03-25T00:52:10.058Z,39.80
2018-03-25T00:53:10.012Z,42.40
2018-03-25T00:54:09.962Z,41.80
2018-03-25T00:55:09.910Z,39.20
2018-03-25T00:56:09.864Z,40.50
2018-03-25T00:57:09.818Z,43.30
2018-03-25T00:58:09.771Z,42.20
2018-03-25T00:59:09.718Z,40.80
2018-03-25T01:00:09.670Z,40.50
2018-03-25T01:01:09.621Z,42.90
2018-03-25T01:02:09.571Z,38.60
2018-03-25T01:03:09.525Z,44.30
2018-03-25T01:04:09.475Z,42.00
2018-03-25T01:05:09.433Z,39.30
2018-03-25T01:06:09.377Z,41.80
2018-03-25T01:07:09.327Z,44.00
2018-03-25T01:08:09.282Z,43.20
2018-03-25T01:09:09.232Z,41.40
2018-03-25T01:10:09.186Z,43.60
2018-03-25T01:11:09.138Z,43.10
2018-03-25T01:12:09.093Z,43.30
2018-03-25T01:13:09.037Z,44.40
2018-03-25T01:14:08.994Z,42.80
2018-03-25T01:15:08.940Z,41.60
2018-03-25T01:16:08.891Z,39.70
2018-03-25T01:17:08.849Z,39.80
2018-03-25T01:18:08.797Z,40.50
2018-03-25T01:19:08.745Z,42.50
2018-03-25T01:20:08.696Z,41.40
2018-03-25T01:21:08.650Z,39.80
2018-03-25T01:22:08.601Z,43.90
2018-03-25T01:23:08.554Z,39.60
2018-03-25T01:24:08.502Z,42.50
2018-03-25T01:25:08.451Z,43.60
2018-03-25T01:26:08.407Z,45.00
2018-03-25T01:27:08.354Z,42.50
2018-03-25T01:28:08.305Z,42.70
2018-03-25T01:29:08.258Z,44.00
2018-03-25T01:30:08.207Z,41.90
2018-03-25T01:31:08.165Z,40.50
2018-03-25T01:32:08.119Z,41.60
2018-03-25T01:33:08.067Z,41.60
2018-03-25T01:34:08.019Z,41.40
2018-03-25T01:35:07.964Z,42.10
2018-03-25T01:36:07.919Z,44.50
2018-03-25T01:37:07.869Z,40.30
2018-03-25T01:38:07.817Z,40.30
2018-03-25T01:39:07.769Z,41.40
2018-03-25T01:40:07.746Z,41.50
2018-03-25T01:41:07.682Z,45.10
2018-03-25T01:42:07.626Z,49.10
2018-03-25T01:43:07.579Z,47.10
2018-03-25T01:44:07.525Z,47.80
2018-03-25T01:45:07.476Z,42.80
2018-03-25T01:46:07.430Z,42.10
2018-03-25T01:47:07.385Z,41.70
2018-03-25T01:48:07.333Z,42.20
2018-03-25T01:49:07.283Z,42.60
2018-03-25T01:50:07.234Z,44.60
2018-03-25T01:51:07.182Z,42.20
2018-03-25T01:52:07.136Z,44.30
2018-03-25T01:53:07.085Z,41.40
2018-03-25T01:54:07.036Z,43.30
2018-03-25T01:55:06.987Z,42.20
2018-03-25T01:56:06.938Z,39.10
2018-03-25T01:57:06.913Z,42.20
2018-03-25T01:58:06.848Z,44.60
2018-03-25T01:59:06.791Z,42.80
2018-03-25T02:00:06.937Z,40.70
2018-03-25T02:01:06.694Z,40.90
2018-03-25T02:02:06.648Z,46.20
2018-03-25T02:03:06.602Z,43.40
2018-03-25T02:04:06.547Z,46.70
2018-03-25T02:05:06.498Z,44.20
2018-03-25T02:06:06.448Z,40.10
2018-03-25T02:07:06.401Z,43.20
2018-03-25T02:08:06.351Z,40.90
2018-03-25T02:09:06.301Z,42.20
2018-03-25T02:10:06.253Z,44.90
2018-03-25T02:11:06.203Z,44.10
2018-03-25T02:12:06.155Z,43.60
2018-03-25T02:13:06.106Z,40.40
2018-03-25T02:14:09.058Z,42.40
2018-03-25T02:15:06.009Z,43.10
2018-03-25T02:16:05.959Z,42.10
2018-03-25T02:17:05.909Z,43.40
2018-03-25T02:18:05.862Z,43.10
2018-03-25T02:19:05.812Z,41.30
2018-03-25T02:20:05.764Z,43.20
2018-03-25T02:21:05.715Z,45.10
2018-03-25T02:22:05.666Z,43.10
2018-03-25T02:23:05.615Z,41.80
2018-03-25T02:24:05.569Z,42.90
2018-03-25T02:25:05.518Z,43.50
2018-03-25T02:26:05.468Z,45.20
2018-03-25T02:27:05.418Z,43.50
2018-03-25T02:28:05.372Z,43.60
2018-03-25T02:29:05.325Z,47.80
2018-03-25T02:30:05.272Z,47.60
2018-03-25T02:31:05.225Z,43.70
2018-03-25T02:32:05.174Z,43.20
2018-03-25T02:33:05.129Z,44.40
2018-03-25T02:34:05.081Z,44.90
2018-03-25T02:35:05.030Z,42.70
2018-03-25T02:36:04.979Z,44.70
2018-03-25T02:37:04.930Z,47.70
2018-03-25T02:38:04.883Z,42.10
2018-03-25T02:39:04.832Z,45.70
2018-03-25T02:40:04.780Z,45.10
2018-03-25T02:41:04.733Z,43.90
2018-03-25T02:42:04.683Z,45.50
2018-03-25T02:43:04.641Z,45.00
2018-03-25T02:44:04.589Z,44.00
2018-03-25T02:45:04.535Z,44.90
2018-03-25T02:46:04.484Z,44.70
2018-03-25T02:47:04.434Z,43.60
2018-03-25T02:48:04.386Z,44.70
2018-03-25T02:49:04.340Z,45.70
2018-03-25T02:50:04.288Z,43.90
2018-03-25T02:51:04.257Z,41.40
2018-03-25T02:52:04.191Z,41.10
2018-03-25T02:53:04.141Z,41.60
2018-03-25T02:54:04.094Z,43.60
2018-03-25T02:55:04.042Z,44.60
2018-03-25T02:56:03.993Z,40.90
2018-03-25T02:57:03.961Z,39.10
2018-03-25T02:58:03.895Z,42.90
2018-03-25T02:59:03.847Z,41.50
2018-03-25T03:00:03.805Z,42.10
2018-03-25T03:01:03.746Z,41.00
2018-03-25T03:02:03.698Z,38.10
2018-03-25T03:03:03.648Z,42.60
2018-03-25T03:04:03.610Z,39.10
2018-03-25T03:05:03.554Z,42.10
2018-03-25T03:06:03.501Z,38.50
2018-03-25T03:07:03.460Z,41.00
2018-03-25T03:08:03.407Z,38.70
2018-03-25T03:09:03.352Z,41.60
2018-03-25T03:10:03.309Z,42.70
2018-03-25T03:11:03.253Z,44.50
2018-03-25T03:12:03.206Z,39.40
2018-03-25T03:13:03.154Z,39.40
2018-03-25T03:14:03.112Z,40.50
2018-03-25T03:15:03.060Z,42.30
2018-03-25T03:16:03.009Z,40.80
2018-03-25T03:17:02.958Z,41.00
2018-03-25T03:18:02.907Z,41.60
2018-03-25T03:19:02.858Z,39.30
2018-03-25T03:20:02.816Z,40.20
2018-03-25T03:21:02.762Z,39.40
2018-03-25T03:22:02.710Z,41.90
2018-03-25T03:23:02.660Z,42.00
2018-03-25T03:24:02.611Z,41.50
2018-03-25T03:25:02.562Z,41.80
2018-03-25T03:26:02.512Z,39.50
2018-03-25T03:27:02.471Z,42.90
2018-03-25T03:28:02.417Z,40.60
2018-03-25T03:29:02.376Z,40.60
2018-03-25T03:30:02.316Z,41.50
2018-03-25T03:31:02.266Z,40.10
2018-03-25T03:32:02.219Z,41.20
2018-03-25T03:33:02.168Z,41.30
2018-03-25T03:34:02.118Z,40.80
2018-03-25T03:35:02.070Z,38.10
2018-03-25T03:36:02.022Z,41.20
2018-03-25T03:37:01.972Z,41.10
2018-03-25T03:38:01.921Z,38.70
2018-03-25T03:39:01.879Z,36.20
2018-03-25T03:40:01.821Z,39.80
2018-03-25T03:41:01.773Z,37.40
2018-03-25T03:42:01.735Z,41.80
2018-03-25T03:43:01.673Z,37.20
2018-03-25T03:44:01.627Z,41.60
2018-03-25T03:45:01.580Z,41.50
2018-03-25T03:46:01.523Z,42.30
2018-03-25T03:47:01.473Z,36.90
2018-03-25T03:48:01.428Z,38.80
2018-03-25T03:49:01.378Z,38.10
2018-03-25T03:50:01.328Z,39.80
2018-03-25T03:51:01.276Z,40.60
2018-03-25T03:52:01.228Z,40.60
2018-03-25T03:53:01.180Z,39.90
2018-03-25T03:54:01.131Z,38.60
2018-03-25T03:55:01.082Z,39.00
2018-03-25T03:56:01.028Z,40.10
2018-03-25T03:57:00.983Z,37.90
2018-03-25T03:58:00.930Z,42.00
2018-03-25T03:59:00.883Z,39.50
2018-03-25T04:00:00.836Z,40.80
2018-03-25T04:01:00.783Z,37.90
2018-03-25T04:02:00.731Z,38.40
2018-03-25T04:03:00.684Z,39.80
2018-03-25T04:04:00.638Z,39.90
2018-03-25T04:05:00.588Z,38.40
2018-03-25T04:06:00.534Z,39.10
2018-03-25T04:07:00.487Z,41.40
2018-03-25T04:08:00.436Z,40.50
2018-03-25T04:09:00.400Z,38.80
2018-03-25T04:10:00.339Z,38.10
2018-03-25T04:11:00.290Z,41.80
2018-03-25T04:12:00.237Z,38.60
2018-03-25T04:13:00.188Z,38.60
2018-03-25T04:14:00.143Z,44.00
2018-03-25T04:15:00.096Z,38.40
2018-03-25T04:16:00.041Z,41.80
2018-03-25T04:16:59.992Z,40.10
2018-03-25T04:17:59.943Z,40.80
2018-03-25T04:18:59.894Z,39.90
2018-03-25T04:19:59.841Z,37.40
2018-03-25T04:20:59.793Z,36.30
2018-03-25T04:21:59.742Z,38.30
2018-03-25T04:22:59.699Z,37.50
2018-03-25T04:23:59.644Z,36.90
2018-03-25T04:24:59.597Z,37.60
2018-03-25T04:25:59.547Z,36.60
2018-03-25T04:26:59.492Z,37.30
2018-03-25T04:27:59.447Z,36.40
2018-03-25T04:28:59.398Z,42.30
2018-03-25T04:29:59.345Z,36.90
2018-03-25T04:30:59.298Z,38.70
2018-03-25T04:31:59.252Z,37.90
2018-03-25T04:32:59.196Z,39.80
2018-03-25T04:33:59.146Z,37.30
2018-03-25T04:34:59.098Z,38.10
2018-03-25T04:35:59.047Z,39.70
2018-03-25T04:36:58.998Z,34.60
2018-03-25T04:37:58.949Z,36.40
2018-03-25T04:38:58.900Z,38.10
2018-03-25T04:39:58.851Z,36.90
2018-03-25T04:40:58.801Z,37.40
2018-03-25T04:41:58.751Z,39.50
2018-03-25T04:42:58.701Z,36.60
2018-03-25T04:43:58.653Z,38.80
2018-03-25T04:44:58.602Z,41.20
2018-03-25T04:45:58.560Z,35.60
2018-03-25T04:46:58.503Z,38.80
2018-03-25T04:47:58.455Z,38.40
2018-03-25T04:48:58.406Z,36.60
2018-03-25T04:49:58.352Z,37.00
2018-03-25T04:50:58.307Z,39.00
2018-03-25T04:51:58.256Z,36.60
2018-03-25T04:52:58.205Z,38.40
2018-03-25T04:53:58.160Z,39.30
2018-03-25T04:54:58.108Z,40.10
2018-03-25T04:55:58.057Z,41.10
2018-03-25T04:56:58.008Z,42.90
2018-03-25T04:57:57.958Z,41.20
2018-03-25T04:58:57.913Z,37.90
2018-03-25T04:59:57.858Z,43.80
2018-03-25T05:00:57.810Z,42.20
2018-03-25T05:01:57.758Z,42.10
2018-03-25T05:02:57.708Z,44.60
2018-03-25T05:03:57.659Z,42.80
2018-03-25T05:04:57.609Z,41.30
2018-03-25T05:05:57.560Z,45.10
2018-03-25T05:06:57.509Z,44.20
2018-03-25T05:07:57.461Z,43.50
2018-03-25T05:08:57.410Z,43.50
2018-03-25T05:09:57.364Z,40.20
2018-03-25T05:10:57.310Z,34.80
2018-03-25T05:11:57.261Z,39.00
2018-03-25T05:12:57.214Z,40.90
2018-03-25T05:13:57.163Z,36.10
2018-03-25T05:14:57.113Z,37.60
2018-03-25T05:15:57.065Z,40.70
2018-03-25T05:16:57.015Z,38.60
2018-03-25T05:17:56.961Z,39.20
2018-03-25T05:18:56.914Z,40.80
2018-03-25T05:19:56.870Z,36.40
2018-03-25T05:20:56.814Z,34.90
2018-03-25T05:21:56.765Z,37.30
2018-03-25T05:22:56.718Z,41.80
2018-03-25T05:23:56.671Z,39.90
2018-03-25T05:24:56.619Z,37.20
2018-03-25T05:25:56.570Z,38.30
2018-03-25T05:26:56.518Z,36.40
2018-03-25T05:27:56.466Z,39.80
2018-03-25T05:28:56.415Z,36.60
2018-03-25T05:29:56.371Z,39.30
2018-03-25T05:30:56.319Z,40.50
2018-03-25T05:31:56.265Z,37.90
2018-03-25T05:32:56.226Z,38.40
2018-03-25T05:33:56.168Z,35.30
2018-03-25T05:34:56.127Z,38.50
2018-03-25T05:35:56.070Z,35.50
2018-03-25T05:36:56.022Z,36.00
2018-03-25T05:37:55.974Z,39.70
2018-03-25T05:38:55.922Z,40.90
2018-03-25T05:39:55.870Z,37.40
2018-03-25T05:40:55.821Z,37.60
2018-03-25T05:41:55.769Z,36.10
2018-03-25T05:42:55.720Z,34.60
2018-03-25T05:43:55.670Z,36.10
2018-03-25T05:44:55.624Z,37.70
2018-03-25T05:45:55.572Z,40.90
2018-03-25T05:46:55.522Z,41.80
2018-03-25T05:47:55.471Z,40.20
2018-03-25T05:48:55.430Z,37.40
2018-03-25T05:49:55.379Z,40.20
2018-03-25T05:50:55.324Z,42.00
2018-03-25T05:51:55.280Z,43.90
2018-03-25T05:52:55.221Z,40.80
2018-03-25T05:53:55.173Z,39.60
2018-03-25T05:54:55.122Z,39.70
2018-03-25T05:55:55.077Z,38.80
2018-03-25T05:56:55.024Z,41.30
2018-03-25T05:57:54.973Z,40.80
2018-03-25T05:58:54.925Z,40.10
2018-03-25T05:59:54.873Z,39.10
2018-03-25T06:00:54.824Z,39.10
2018-03-25T06:01:54.773Z,36.30
2018-03-25T06:02:54.724Z,38.30
2018-03-25T06:03:54.681Z,39.60
2018-03-25T06:04:54.628Z,40.40
2018-03-25T06:05:54.572Z,40.40
2018-03-25T06:06:54.526Z,37.70
2018-03-25T06:07:54.478Z,41.00
2018-03-25T06:08:54.428Z,40.00
2018-03-25T06:09:54.375Z,39.60
2018-03-25T06:10:54.328Z,38.20
2018-03-25T06:11:54.288Z,38.00
2018-03-25T06:12:54.230Z,36.70
2018-03-25T06:13:54.183Z,40.50
2018-03-25T06:14:54.132Z,35.00
2018-03-25T06:15:54.165Z,41.60
2018-03-25T06:16:54.030Z,41.10
2018-03-25T06:17:53.979Z,38.40
2018-03-25T06:18:53.930Z,38.90
2018-03-25T06:19:53.879Z,39.50
2018-03-25T06:20:53.830Z,38.00
2018-03-25T06:21:53.786Z,39.30
2018-03-25T06:22:53.733Z,38.60
2018-03-25T06:23:53.679Z,38.60
2018-03-25T06:24:53.630Z,42.50
2018-03-25T06:25:53.580Z,40.90
2018-03-25T06:26:53.534Z,41.30
2018-03-25T06:27:53.523Z,40.20
2018-03-25T06:28:53.435Z,39.20
2018-03-25T06:29:53.384Z,44.10
2018-03-25T06:30:53.338Z,40.10
2018-03-25T06:31:53.283Z,39.00
2018-03-25T06:32:53.237Z,40.80
2018-03-25T06:33:53.185Z,39.20
2018-03-25T06:34:53.137Z,38.00
2018-03-25T06:35:53.085Z,41.00
2018-03-25T06:36:53.072Z,39.30
2018-03-25T06:37:52.985Z,39.70
2018-03-25T06:38:52.938Z,41.10
2018-03-25T06:39:52.893Z,36.60
2018-03-25T06:40:52.841Z,39.00
2018-03-25T06:41:52.792Z,39.10
2018-03-25T06:42:52.739Z,37.90
2018-03-25T06:43:52.688Z,41.80
2018-03-25T06:44:52.646Z,39.10
2018-03-25T06:45:52.592Z,43.50
2018-03-25T06:46:52.543Z,41.00
2018-03-25T06:47:52.496Z,39.70
2018-03-25T06:48:52.448Z,38.80
2018-03-25T06:49:52.395Z,36.80
2018-03-25T06:50:52.347Z,41.50
2018-03-25T06:51:52.297Z,37.40
2018-03-25T06:52:52.247Z,37.80
2018-03-25T06:53:52.198Z,41.40
2018-03-25T06:54:52.147Z,39.30
2018-03-25T06:55:52.099Z,37.90
2018-03-25T06:56:52.053Z,38.60
2018-03-25T06:57:52.004Z,42.60
2018-03-25T06:58:51.952Z,42.40
2018-03-25T06:59:51.904Z,43.40
2018-03-25T07:00:51.855Z,39.90
2018-03-25T07:01:51.809Z,43.10
2018-03-25T07:02:51.762Z,42.00
2018-03-25T07:03:51.710Z,38.00
2018-03-25T07:04:51.662Z,40.60
2018-03-25T07:05:51.615Z,40.40
2018-03-25T07:06:51.565Z,40.20
2018-03-25T07:07:51.518Z,36.50
2018-03-25T07:08:51.472Z,36.60
2018-03-25T07:09:51.422Z,39.00
2018-03-25T07:10:51.376Z,38.40
2018-03-25T07:11:51.327Z,36.00
2018-03-25T07:12:51.281Z,35.50
2018-03-25T07:13:51.233Z,34.60
2018-03-25T07:14:51.188Z,34.20
2018-03-25T07:15:51.151Z,33.60
2018-03-25T07:16:51.095Z,34.00
2018-03-25T07:17:51.046Z,32.60
2018-03-25T07:18:51.002Z,32.40
2018-03-25T07:19:50.956Z,33.20
2018-03-25T07:20:50.911Z,33.50
2018-03-25T07:21:50.885Z,37.00
2018-03-25T07:22:50.824Z,29.80
2018-03-25T07:23:50.774Z,31.60
2018-03-25T07:24:50.726Z,31.90
2018-03-25T07:25:50.686Z,32.70
2018-03-25T07:26:50.637Z,30.30
2018-03-25T07:27:50.591Z,33.30
2018-03-25T07:28:50.548Z,30.30
2018-03-25T07:29:50.511Z,29.40
2018-03-25T07:30:50.454Z,30.50
2018-03-25T07:31:50.410Z,29.50
2018-03-25T07:32:50.367Z,29.70
2018-03-25T07:33:50.320Z,31.20
2018-03-25T07:34:50.277Z,29.20
2018-03-25T07:35:50.234Z,29.20
2018-03-25T07:36:50.187Z,30.20
2018-03-25T07:37:50.149Z,30.00
2018-03-25T07:38:50.100Z,31.00
2018-03-25T07:39:50.055Z,27.60
2018-03-25T07:40:50.010Z,29.70
2018-03-25T07:41:49.968Z,31.00
2018-03-25T07:42:49.925Z,32.60
2018-03-25T07:43:49.881Z,29.40
2018-03-25T07:44:49.837Z,30.00
2018-03-25T07:45:49.826Z,28.80
2018-03-25T07:46:49.769Z,30.10
2018-03-25T07:47:49.706Z,33.70
2018-03-25T07:48:49.666Z,30.30
2018-03-25T07:49:49.620Z,32.70
2018-03-25T07:50:49.579Z,33.60
2018-03-25T07:51:49.538Z,29.20
2018-03-25T07:52:49.495Z,31.20
2018-03-25T07:53:49.449Z,31.20
2018-03-25T07:54:49.411Z,30.40
2018-03-25T07:55:49.366Z,30.50
2018-03-25T07:56:49.325Z,31.80
2018-03-25T07:57:49.284Z,31.10
2018-03-25T07:58:49.250Z,30.00
2018-03-25T07:59:49.199Z,30.40
2018-03-25T08:00:49.157Z,30.80
2018-03-25T08:01:49.114Z,29.00
2018-03-25T08:02:49.078Z,30.20
2018-03-25T08:03:49.037Z,30.80
2018-03-25T08:04:48.998Z,30.50
2018-03-25T08:05:48.952Z,31.00
2018-03-25T08:06:48.911Z,30.50
2018-03-25T08:07:48.869Z,28.00
2018-03-25T08:08:48.829Z,31.10
2018-03-25T08:09:48.786Z,30.00
2018-03-25T08:10:48.746Z,31.50
2018-03-25T08:11:48.705Z,34.10
2018-03-25T08:12:48.663Z,28.80
2018-03-25T08:13:48.623Z,29.00
2018-03-25T08:14:48.590Z,28.60
2018-03-25T08:15:48.543Z,29.60
2018-03-25T08:16:48.513Z,27.90
2018-03-25T08:17:48.464Z,29.20
2018-03-25T08:18:48.424Z,27.70
2018-03-25T08:19:48.386Z,28.60
2018-03-25T08:20:48.354Z,26.20
2018-03-25T08:21:48.303Z,28.20
2018-03-25T08:22:48.265Z,29.10
2018-03-25T08:23:48.232Z,26.40
2018-03-25T08:24:48.185Z,26.60
2018-03-25T08:25:48.153Z,26.80
2018-03-25T08:26:48.107Z,27.50
2018-03-25T08:27:48.066Z,25.60
2018-03-25T08:28:48.035Z,27.00
2018-03-25T08:29:47.987Z,27.50
2018-03-25T08:30:47.949Z,25.90
2018-03-25T08:31:47.912Z,25.50
2018-03-25T08:32:47.874Z,25.40
2018-03-25T08:33:47.838Z,26.20
2018-03-25T08:34:47.797Z,25.70
2018-03-25T08:35:47.762Z,25.10
2018-03-25T08:36:47.721Z,25.10
2018-03-25T08:37:47.696Z,26.40
2018-03-25T08:38:47.643Z,25.20
2018-03-25T08:39:47.605Z,28.10
2018-03-25T08:40:47.570Z,25.90
2018-03-25T08:41:47.532Z,26.00
2018-03-25T08:42:47.493Z,25.70
2018-03-25T08:43:47.454Z,24.80
2018-03-25T08:44:47.416Z,28.10
2018-03-25T08:45:47.378Z,26.50
2018-03-25T08:46:47.348Z,26.60
2018-03-25T08:47:47.315Z,26.30
2018-03-25T08:48:47.267Z,26.00
2018-03-25T08:49:47.237Z,25.90
2018-03-25T08:50:47.194Z,26.80
2018-03-25T08:51:47.155Z,25.70
2018-03-25T08:52:47.121Z,26.00
2018-03-25T08:53:47.080Z,26.60
2018-03-25T08:54:47.041Z,25.10
2018-03-25T08:55:47.006Z,27.20
2018-03-25T08:56:46.967Z,28.60
2018-03-25T08:57:46.966Z,25.90
2018-03-25T08:58:46.897Z,25.60
2018-03-25T08:59:46.858Z,27.60
2018-03-25T09:00:46.823Z,27.20
2018-03-25T09:01:46.784Z,27.70
2018-03-25T09:02:46.747Z,25.00
2018-03-25T09:03:46.711Z,27.50
2018-03-25T09:04:46.690Z,27.80
2018-03-25T09:05:46.638Z,26.60
2018-03-25T09:06:46.600Z,26.00
2018-03-25T09:07:46.570Z,28.00
2018-03-25T09:08:46.528Z,27.40
2018-03-25T09:09:46.491Z,25.30
2018-03-25T09:10:46.485Z,24.10
2018-03-25T09:11:46.425Z,24.50
2018-03-25T09:12:46.382Z,26.50
2018-03-25T09:13:46.345Z,26.10
2018-03-25T09:14:46.306Z,27.20
2018-03-25T09:15:46.273Z,27.70
2018-03-25T09:16:46.237Z,26.10
2018-03-25T09:17:46.201Z,27.00
2018-03-25T09:18:46.160Z,25.90
2018-03-25T09:19:46.124Z,25.10
2018-03-25T09:20:46.094Z,28.80
2018-03-25T09:21:46.115Z,27.00
2018-03-25T09:22:46.014Z,28.90
2018-03-25T09:23:45.978Z,27.40
2018-03-25T09:24:45.941Z,28.30
2018-03-25T09:25:45.907Z,29.90
2018-03-25T09:26:45.869Z,26.90
2018-03-25T09:27:45.826Z,28.30
2018-03-25T09:28:45.795Z,25.60
2018-03-25T09:29:45.753Z,27.40
2018-03-25T09:30:45.717Z,26.50
2018-03-25T09:31:45.679Z,25.30
2018-03-25T09:32:45.644Z,28.10
2018-03-25T09:33:45.612Z,25.90
2018-03-25T09:34:45.571Z,28.60
2018-03-25T09:35:45.530Z,28.30
2018-03-25T09:36:45.491Z,26.70
2018-03-25T09:37:45.456Z,27.50
2018-03-25T09:38:45.417Z,26.60
2018-03-25T09:39:45.380Z,24.40
2018-03-25T09:40:45.346Z,25.10
2018-03-25T09:41:45.304Z,27.00
2018-03-25T09:42:45.271Z,25.50
2018-03-25T09:43:45.229Z,25.60
2018-03-25T09:44:45.193Z,25.50
2018-03-25T09:45:45.157Z,26.10
2018-03-25T09:46:45.114Z,27.50
2018-03-25T09:47:45.077Z,27.70
2018-03-25T09:48:45.039Z,25.70
2018-03-25T09:49:45.004Z,29.10
2018-03-25T09:50:44.965Z,26.50
2018-03-25T09:51:44.928Z,26.80
2018-03-25T09:52:44.929Z,28.40
2018-03-25T09:53:44.851Z,28.50
2018-03-25T09:54:44.812Z,27.60
2018-03-25T09:55:44.774Z,25.50
2018-03-25T09:56:44.737Z,25.30
2018-03-25T09:57:44.696Z,24.80
2018-03-25T09:58:44.712Z,24.70
2018-03-25T09:59:44.620Z,26.60
2018-03-25T10:00:44.583Z,26.40
2018-03-25T10:01:44.544Z,27.00
2018-03-25T10:02:44.506Z,26.40
2018-03-25T10:03:44.498Z,25.40
2018-03-25T10:04:44.509Z,27.90
2018-03-25T10:05:44.389Z,25.60
2018-03-25T10:06:44.352Z,26.60
2018-03-25T10:07:44.314Z,26.10
2018-03-25T10:08:44.279Z,26.30
2018-03-25T10:09:44.240Z,25.30
2018-03-25T10:10:44.203Z,25.50
2018-03-25T10:11:44.160Z,26.00
2018-03-25T10:12:44.123Z,25.50
2018-03-25T10:13:44.084Z,26.30
2018-03-25T10:14:44.045Z,27.20
2018-03-25T10:15:44.004Z,27.50
2018-03-25T10:16:44.014Z,27.10
2018-03-25T10:17:43.930Z,27.70
2018-03-25T10:18:43.889Z,27.20
2018-03-25T10:19:43.853Z,27.30
2018-03-25T10:20:43.811Z,26.60
2018-03-25T10:21:43.772Z,25.80
2018-03-25T10:22:43.734Z,26.80
2018-03-25T10:23:43.698Z,27.50
2018-03-25T10:24:43.667Z,25.90
2018-03-25T10:25:43.618Z,27.20
2018-03-25T10:26:43.619Z,27.60
2018-03-25T10:27:43.542Z,27.40
2018-03-25T10:28:43.506Z,26.40
2018-03-25T10:29:43.463Z,26.70
2018-03-25T10:30:43.423Z,26.50
2018-03-25T10:31:43.385Z,27.80
2018-03-25T10:32:43.349Z,26.70
2018-03-25T10:33:43.307Z,26.60
2018-03-25T10:34:43.270Z,28.40
2018-03-25T10:35:43.231Z,28.90
2018-03-25T10:36:43.198Z,28.30
2018-03-25T10:37:43.189Z,28.20
2018-03-25T10:38:43.119Z,28.10
2018-03-25T10:39:43.079Z,28.40
2018-03-25T10:40:43.039Z,29.60
2018-03-25T10:41:42.998Z,28.30
2018-03-25T10:42:42.964Z,28.70
2018-03-25T10:43:42.926Z,26.50
2018-03-25T10:44:42.887Z,28.50
2018-03-25T10:45:42.846Z,25.10
2018-03-25T10:46:42.805Z,25.80
2018-03-25T10:47:42.767Z,27.50
2018-03-25T10:48:42.736Z,23.40
2018-03-25T10:49:42.689Z,25.70
2018-03-25T10:50:42.651Z,24.60
2018-03-25T10:51:42.613Z,26.20
2018-03-25T10:52:42.576Z,26.80
2018-03-25T10:53:42.534Z,22.90
2018-03-25T10:54:42.504Z,25.40
2018-03-25T10:55:42.458Z,23.30
2018-03-25T10:56:42.419Z,23.10
2018-03-25T10:57:42.379Z,24.80
2018-03-25T10:58:42.340Z,22.70
2018-03-25T10:59:42.303Z,22.90
2018-03-25T11:00:42.265Z,23.30
2018-03-25T11:01:42.222Z,24.40
2018-03-25T11:02:42.186Z,22.90
2018-03-25T11:03:42.147Z,24.40
2018-03-25T11:04:42.132Z,24.20
2018-03-25T11:05:42.069Z,24.60
2018-03-25T11:06:42.029Z,24.30
2018-03-25T11:07:41.993Z,25.60
2018-03-25T11:08:41.956Z,23.00
2018-03-25T11:09:41.923Z,23.70
2018-03-25T11:10:41.874Z,24.20
2018-03-25T11:11:41.835Z,24.30
2018-03-25T11:12:41.797Z,24.10
2018-03-25T11:13:41.761Z,27.10
2018-03-25T11:14:41.723Z,24.00
2018-03-25T11:15:41.684Z,24.80
2018-03-25T11:16:41.641Z,24.80
2018-03-25T11:17:41.604Z,26.00
2018-03-25T11:18:41.572Z,24.30
2018-03-25T11:19:41.527Z,27.70
2018-03-25T11:20:41.493Z,26.00
2018-03-25T11:21:41.450Z,23.60
2018-03-25T11:22:41.412Z,26.10
2018-03-25T11:23:41.381Z,27.30
2018-03-25T11:24:41.347Z,26.50
2018-03-25T11:25:41.299Z,25.20
2018-03-25T11:26:41.256Z,26.80
2018-03-25T11:27:41.221Z,26.70
2018-03-25T11:28:41.183Z,28.40
2018-03-25T11:29:41.146Z,26.50
2018-03-25T11:30:41.107Z,26.10
2018-03-25T11:31:41.067Z,28.10
2018-03-25T11:32:41.032Z,27.30
2018-03-25T11:33:40.999Z,27.80
2018-03-25T11:34:40.954Z,28.60
2018-03-25T11:35:40.922Z,28.80
2018-03-25T11:36:40.879Z,27.90
2018-03-25T11:37:40.842Z,27.20
2018-03-25T11:38:40.804Z,25.70
2018-03-25T11:39:40.767Z,28.10
2018-03-25T11:40:40.728Z,28.20
2018-03-25T11:41:40.694Z,26.10
2018-03-25T11:42:40.658Z,30.10
2018-03-25T11:43:40.618Z,28.90
2018-03-25T11:44:40.586Z,29.50
2018-03-25T11:45:40.542Z,31.50
2018-03-25T11:46:40.505Z,28.80
2018-03-25T11:47:40.464Z,31.30
2018-03-25T11:48:40.431Z,32.40
2018-03-25T11:49:40.390Z,30.90
2018-03-25T11:50:40.360Z,33.00
2018-03-25T11:51:40.314Z,31.50
2018-03-25T11:52:40.279Z,30.40
2018-03-25T11:53:40.235Z,28.20
2018-03-25T11:54:40.201Z,30.20
2018-03-25T11:55:40.163Z,31.70
2018-03-25T11:56:40.125Z,29.80
2018-03-25T11:57:40.086Z,30.80
2018-03-25T11:58:40.048Z,32.20
2018-03-25T11:59:40.013Z,28.80
2018-03-25T12:00:39.977Z,29.60
2018-03-25T12:01:39.937Z,28.40
2018-03-25T12:02:39.896Z,30.20
2018-03-25T12:03:39.862Z,28.00
2018-03-25T12:04:39.824Z,32.00
2018-03-25T12:05:39.832Z,32.60
2018-03-25T12:06:39.750Z,30.90
2018-03-25T12:07:39.717Z,30.50
2018-03-25T12:08:39.681Z,31.60
2018-03-25T12:09:39.641Z,30.10
2018-03-25T12:10:39.608Z,31.30
2018-03-25T12:11:39.571Z,29.70
2018-03-25T12:12:39.533Z,28.60
2018-03-25T12:13:39.494Z,27.60
2018-03-25T12:14:39.458Z,28.20
2018-03-25T12:15:39.424Z,29.60
2018-03-25T12:16:39.386Z,27.60
2018-03-25T12:17:39.350Z,28.60
2018-03-25T12:18:39.316Z,28.60
2018-03-25T12:19:39.284Z,26.10
2018-03-25T12:20:39.244Z,25.30
2018-03-25T12:21:39.219Z,26.60
2018-03-25T12:22:39.172Z,26.90
2018-03-25T12:23:39.140Z,27.90
2018-03-25T12:24:39.104Z,31.10
2018-03-25T12:25:39.073Z,28.80
2018-03-25T12:26:39.032Z,28.40
2018-03-25T12:27:38.998Z,26.50
2018-03-25T12:28:38.960Z,25.60
2018-03-25T12:29:38.925Z,28.00
2018-03-25T12:30:38.890Z,26.90
2018-03-25T12:31:38.858Z,27.00
2018-03-25T12:32:38.823Z,28.40
2018-03-25T12:33:38.791Z,29.30
2018-03-25T12:34:38.752Z,27.50
2018-03-25T12:35:38.721Z,27.60
2018-03-25T12:36:38.687Z,28.70
2018-03-25T12:37:38.646Z,25.40
2018-03-25T12:38:38.613Z,25.70
2018-03-25T12:39:38.582Z,25.40
2018-03-25T12:40:38.541Z,25.80
2018-03-25T12:41:38.506Z,24.00
2018-03-25T12:42:38.470Z,24.10
2018-03-25T12:43:38.436Z,24.40
2018-03-25T12:44:38.400Z,25.40
2018-03-25T12:45:38.363Z,24.40
2018-03-25T12:46:38.329Z,24.40
2018-03-25T12:47:38.293Z,25.00
2018-03-25T12:48:38.259Z,24.70
2018-03-25T12:49:38.224Z,25.50
2018-03-25T12:50:38.185Z,24.50
2018-03-25T12:51:38.152Z,24.20